Pomeroyton, Kentucky
Current Conditions -  °F | °C
As of 4:30 PM on Wednesday 26 Nov 2014 (Local Time) from KSYM Reporting Station
Broken Clouds Broken Clouds  
Wind Chill: 36°   Ceiling: 3800
Heat Index: 41°   Visibility: 10mi
Dew Point: 28°   Wind: 7mph
Humidity: 61%   Direction: 300°WNW
Pressure: 30.05"   Gusts: NA
Location:  37.9798°N, 83.4731°W
Report Text: KSYM 262130Z AUTO 30006KT 10SM BKN038 05/M02 A3005 RMK AO2
Loading
Personal Weather Stations






























Interactive Weather Map New forecast layout! Learn more

10-Day Weather Forecast

Advertisements
Track Severe Weather on mobile